Time;durP1;ratioP1;P1;durP2;ratioP2;P2;SDS_P1;SDS_P2;PMS_P1;PMS_P2;Temp;Humidity;BMP_temperature;BMP_pressure;BME280_temperature;BME280_humidity;BME280_pressure;Samples;Min_cycle;Max_cycle;Signal;HPM_P1;HPM_P2
2022/01/10 00:00:29;;;;;;;;;;;;;;;2.40;100.00;148052.13;5119240;28;20030;-69
2022/01/10 00:02:56;;;;;;;20.67;4.23;;;;;;;2.42;100.00;148055.97;5117839;28;20168;-69
2022/01/10 00:05:22;;;;;;;14.90;5.33;;;;;;;2.53;100.00;148085.53;5115719;28;20585;-68
2022/01/10 00:07:49;;;;;;;14.97;5.70;;;;;;;2.52;100.00;148082.97;5116787;28;20042;-68
2022/01/10 00:10:14;;;;;;;22.20;5.40;;;;;;;2.45;100.00;148063.72;5118049;27;20031;-68
2022/01/10 00:12:40;;;;;;;22.03;5.93;;;;;;;2.42;100.00;148055.97;5121461;27;20154;-69
2022/01/10 00:15:07;;;;;;;16.73;5.93;;;;;;;2.29;100.00;148025.09;5112292;27;20253;-68
2022/01/10 00:17:33;;;;;;;18.47;5.30;;;;;;;2.23;100.00;148009.69;5116474;27;20538;-69
2022/01/10 00:19:58;;;;;;;17.03;5.33;;;;;;;2.23;100.00;148009.69;5113674;27;20043;-69
2022/01/10 00:22:25;;;;;;;16.97;5.13;;;;;;;2.10;100.00;147975.00;5117150;27;20503;-69
2022/01/10 00:24:51;;;;;;;19.57;5.30;;;;;;;2.12;100.00;147981.41;5112269;27;20042;-68
2022/01/10 00:27:16;;;;;;;30.10;5.57;;;;;;;1.98;100.00;147945.44;5113507;27;20023;-68
2022/01/10 00:29:42;;;;;;;12.20;4.37;;;;;;;1.88;100.00;147921.00;5120621;27;20079;-67
2022/01/10 00:32:07;;;;;;;18.90;5.03;;;;;;;1.89;100.00;147923.56;5121116;27;20027;-69
2022/01/10 00:34:33;;;;;;;23.53;6.57;;;;;;;1.92;100.00;147929.97;5117181;27;20027;-67
2022/01/10 00:36:58;;;;;;;14.50;5.33;;;;;;;1.81;100.00;147901.69;5121137;27;20038;-67
2022/01/10 00:39:24;;;;;;;14.50;5.63;;;;;;;1.68;100.00;147870.88;5117062;27;20119;-67
2022/01/10 00:41:50;;;;;;;19.13;6.03;;;;;;;1.50;100.00;147824.63;5121038;27;20184;-67
2022/01/10 00:44:15;;;;;;;20.77;6.03;;;;;;;1.79;100.00;147897.84;5119571;27;20112;-67
2022/01/10 00:46:41;;;;;;;17.73;5.37;;;;;;;1.69;100.00;147873.44;5121181;27;20038;-67
2022/01/10 00:49:07;;;;;;;17.43;5.47;;;;;;;1.69;100.00;147873.44;5118437;27;20031;-67
2022/01/10 00:51:33;;;;;;;20.30;6.20;;;;;;;1.75;100.00;147888.88;5120864;27;20039;-67
2022/01/10 00:53:59;;;;;;;24.97;6.57;;;;;;;1.61;100.00;147852.91;5118667;27;20122;-67
2022/01/10 00:56:24;;;;;;;28.57;5.47;;;;;;;1.75;100.00;147888.88;5121722;27;20497;-67
2022/01/10 00:58:51;;;;;;;32.17;6.77;;;;;;;1.76;100.00;147891.44;5121752;27;20027;-67
2022/01/10 01:01:17;;;;;;;14.83;5.33;;;;;;;1.92;100.00;147929.97;5121882;27;20099;-67
2022/01/10 01:03:43;;;;;;;25.50;5.70;;;;;;;1.83;100.00;147906.88;5116008;27;20039;-67
2022/01/10 01:06:11;;;;;;;25.50;5.83;;;;;;;1.71;100.00;147878.59;5107667;27;20039;-67
2022/01/10 01:08:36;;;;;;;27.67;5.63;;;;;;;1.77;100.00;147894.00;5115142;27;20035;-67
2022/01/10 01:16:16;;;;;;;22.07;6.17;;;;;;;1.89;100.00;147922.28;5115219;27;20126;-67
2022/01/10 01:19:08;;;;;;;26.20;5.80;;;;;;;1.92;100.00;147931.25;5115545;27;20019;-67
2022/01/10 01:24:13;;;;;;;23.27;5.73;;;;;;;1.98;100.00;147945.44;5109505;27;20306;-67
2022/01/10 01:26:42;;;;;;;26.43;6.20;;;;;;;1.92;100.00;147929.97;5110418;27;20023;-67
2022/01/10 01:29:10;;;;;;;30.87;6.47;;;;;;;2.11;100.00;147977.56;5115533;27;20023;-67
2022/01/10 01:31:37;;;;;;;28.67;6.93;;;;;;;2.14;100.00;147986.56;5112979;27;20584;-67
2022/01/10 01:34:03;;;;;;;20.73;5.63;;;;;;;1.99;100.00;147948.00;5106276;27;20044;-67
2022/01/10 01:36:30;;;;;;;19.50;5.37;;;;;;;2.03;100.00;147958.25;5116491;27;20106;-72
2022/01/10 01:38:56;;;;;;;24.30;6.67;;;;;;;2.03;100.00;147959.56;5114531;27;20030;-67
2022/01/10 01:43:48;;;;;;;28.00;6.20;;;;;;;1.91;100.00;147927.41;5117292;27;20608;-67
2022/01/10 01:46:14;;;;;;;17.67;5.90;;;;;;;1.72;100.00;147881.19;5114441;27;20091;-67
2022/01/10 01:48:40;;;;;;;20.00;6.43;;;;;;;1.57;100.00;147841.31;5112869;27;20031;-67
2022/01/10 01:51:06;;;;;;;18.47;5.80;;;;;;;1.58;100.00;147845.22;5111689;27;20276;-67
2022/01/10 01:53:31;;;;;;;28.87;7.40;;;;;;;1.57;100.00;147842.59;5111961;27;20025;-67
2022/01/10 01:56:00;;;;;;;23.33;5.97;;;;;;;1.75;100.00;147887.59;5107446;27;20403;-67
2022/01/10 01:58:26;;;;;;;27.03;7.03;;;;;;;1.70;100.00;147874.75;5110860;27;20023;-67
2022/01/10 02:00:52;;;;;;;18.60;5.97;;;;;;;1.82;100.00;147904.28;5116347;27;20559;-69
2022/01/10 02:03:17;;;;;;;24.03;6.63;;;;;;;1.93;100.00;147932.56;5111133;27;20600;-69
2022/01/10 02:05:43;;;;;;;17.57;5.53;;;;;;;1.97;100.00;147942.88;5113505;27;20063;-68
2022/01/10 02:08:10;;;;;;;24.20;6.83;;;;;;;2.06;100.00;147966.03;5114755;27;20535;-68
2022/01/10 02:10:36;;;;;;;25.37;6.47;;;;;;;2.20;100.00;148002.00;5118382;27;20087;-68
2022/01/10 02:13:01;;;;;;;22.40;6.40;;;;;;;2.25;100.00;148014.84;5120553;27;20054;-68
2022/01/10 02:18:20;;;;;;;27.42;6.93;;;;;;;2.38;100.00;148045.69;5107926;27;20058;-68
2022/01/10 02:20:46;;;;;;;21.30;5.43;;;;;;;2.40;100.00;148050.84;5117916;27;20403;-68
2022/01/10 02:23:13;;;;;;;28.00;6.53;;;;;;;2.39;100.00;148049.53;5120523;27;20072;-68
2022/01/10 02:25:40;;;;;;;25.27;7.20;;;;;;;2.40;100.00;148050.84;5113212;27;20048;-68
2022/01/10 02:28:05;;;;;;;22.53;5.97;;;;;;;2.41;100.00;148053.41;5114584;27;20106;-68
2022/01/10 02:30:31;;;;;;;26.67;6.37;;;;;;;2.35;100.00;148040.56;5115077;27;20658;-68
2022/01/10 02:32:57;;;;;;;26.57;7.20;;;;;;;2.35;100.00;148040.56;5119790;27;20031;-68
2022/01/10 02:35:27;;;;;;;24.63;7.20;;;;;;;2.36;100.00;148041.84;5118844;27;20019;-68
2022/01/10 02:37:55;;;;;;;21.07;6.70;;;;;;;2.33;100.00;148035.44;5114908;27;20033;-68
2022/01/10 02:40:23;;;;;;;26.20;6.97;;;;;;;2.28;100.00;148021.25;5119667;27;20027;-68
2022/01/10 02:42:49;;;;;;;33.60;7.40;;;;;;;2.20;100.00;148000.72;5118872;27;20098;-68
2022/01/10 02:45:16;;;;;;;24.50;6.90;;;;;;;2.12;100.00;147981.41;5116400;27;20023;-68
2022/01/10 02:47:42;;;;;;;17.40;6.07;;;;;;;2.03;100.00;147958.25;5117713;27;20105;-68
2022/01/10 02:50:08;;;;;;;28.47;6.53;;;;;;;1.93;100.00;147932.56;5115980;27;20027;-68
2022/01/10 02:52:34;;;;;;;20.83;6.50;;;;;;;1.89;100.00;147923.56;5116328;27;20058;-68
2022/01/10 02:55:01;;;;;;;21.67;6.40;;;;;;;1.86;100.00;147914.59;5116177;27;20807;-68
2022/01/10 02:57:28;;;;;;;29.73;6.17;;;;;;;1.69;100.00;147873.44;5119453;27;20640;-68
2022/01/10 02:59:53;;;;;;;30.13;7.20;;;;;;;1.58;100.00;147845.22;5117012;27;20019;-68
2022/01/10 03:02:21;;;;;;;27.30;7.10;;;;;;;1.49;100.00;147822.06;5117493;27;20063;-68
2022/01/10 03:04:46;;;;;;;21.63;6.27;;;;;;;1.35;100.00;147787.38;5116118;27;20055;-68
2022/01/10 03:07:22;;;;;;;23.93;6.00;;;;;;;1.26;100.00;147762.97;5119864;28;20057;-68
2022/01/10 03:09:47;;;;;;;26.07;6.63;;;;;;;1.11;100.00;147727.00;5111690;28;20035;-68
2022/01/10 03:12:12;;;;;;;20.90;6.27;;;;;;;1.02;100.00;147703.88;5120186;28;20015;-68
2022/01/10 03:14:38;;;;;;;26.13;6.67;;;;;;;1.06;100.00;147712.88;5115627;28;20024;-68
2022/01/10 03:17:04;;;;;;;43.87;7.87;;;;;;;1.15;100.00;147737.28;5117353;28;20030;-68
2022/01/10 03:19:29;;;;;;;29.40;7.07;;;;;;;1.08;100.00;147719.28;5115427;28;20011;-68
2022/01/10 03:21:54;;;;;;;26.23;6.77;;;;;;;1.23;100.00;147756.56;5114842;28;20411;-68
2022/01/10 03:24:20;;;;;;;30.53;7.87;;;;;;;1.17;100.00;147742.41;5115028;28;20142;-68
2022/01/10 03:26:45;;;;;;;29.63;7.17;;;;;;;1.38;100.00;147793.81;5115343;28;20067;-68
2022/01/10 03:29:11;;;;;;;28.33;8.67;;;;;;;1.30;100.00;147773.22;5114835;28;20042;-68
2022/01/10 03:31:36;;;;;;;30.57;7.40;;;;;;;1.25;100.00;147760.41;5113714;28;20598;-68
2022/01/10 03:34:03;;;;;;;44.57;9.00;;;;;;;1.26;100.00;147762.97;5115265;28;20025;-68
2022/01/10 03:36:28;;;;;;;38.83;8.17;;;;;;;1.11;100.00;147727.00;5112817;28;20059;-68
2022/01/10 03:38:54;;;;;;;40.80;9.43;;;;;;;1.14;100.00;147733.44;5115520;28;20050;-68
2022/01/10 03:41:19;;;;;;;31.60;8.00;;;;;;;1.01;100.00;147700.03;5117447;28;20106;-66
2022/01/10 03:43:45;;;;;;;40.17;9.40;;;;;;;0.91;100.00;147675.63;5114414;28;20038;-65
2022/01/10 03:46:10;;;;;;;36.03;7.77;;;;;;;0.88;100.00;147667.94;5111106;27;20091;-65
2022/01/10 03:48:36;;;;;;;35.33;8.10;;;;;;;0.83;100.00;147655.06;5122410;27;20662;-65
2022/01/10 03:51:01;;;;;;;34.17;8.37;;;;;;;0.71;100.00;147624.25;5119091;27;20023;-65
2022/01/10 03:53:27;;;;;;;40.67;9.87;;;;;;;0.74;100.00;147632.00;5120360;27;20111;-65
2022/01/10 03:55:53;;;;;;;34.70;8.80;;;;;;;0.55;100.00;147585.75;5122150;27;20042;-65
2022/01/10 03:58:18;;;;;;;31.97;8.57;;;;;;;0.44;100.00;147556.25;5119516;27;20023;-65
2022/01/10 04:00:43;;;;;;;47.33;9.33;;;;;;;0.46;100.00;147562.66;5121156;27;20771;-67
2022/01/10 04:03:09;;;;;;;34.77;9.27;;;;;;;0.43;100.00;147554.97;5115969;27;20031;-66
2022/01/10 04:05:35;;;;;;;38.53;9.20;;;;;;;0.62;100.00;147601.19;5113597;27;21869;-66
2022/01/10 04:08:01;;;;;;;37.20;8.40;;;;;;;0.56;100.00;147587.03;5112056;27;20035;-66
2022/01/10 04:10:26;;;;;;;31.07;8.57;;;;;;;0.53;100.00;147580.63;5122197;27;20526;-66
2022/01/10 04:12:52;;;;;;;32.37;8.67;;;;;;;0.32;100.00;147526.72;5118748;27;20106;-66
2022/01/10 04:15:17;;;;;;;28.30;8.67;;;;;;;0.17;100.00;147488.22;5123018;27;20019;-66
2022/01/10 04:17:43;;;;;;;44.43;9.30;;;;;;;0.23;100.00;147503.59;5115568;27;20058;-66
2022/01/10 04:20:09;;;;;;;47.30;10.17;;;;;;;0.37;100.00;147539.56;5121258;27;20024;-67
2022/01/10 04:22:34;;;;;;;46.63;11.20;;;;;;;0.44;100.00;147557.53;5116267;27;20026;-67
2022/01/10 04:25:00;;;;;;;38.90;9.33;;;;;;;0.49;100.00;147570.38;5117135;27;20027;-67
2022/01/10 04:27:26;;;;;;;42.33;9.93;;;;;;;0.46;100.00;147561.38;5117029;27;20453;-67
2022/01/10 04:29:51;;;;;;;39.97;9.80;;;;;;;0.43;100.00;147554.97;5117386;27;20031;-66
2022/01/10 04:32:17;;;;;;;34.73;9.43;;;;;;;0.49;100.00;147569.09;5123549;27;20025;-66
2022/01/10 04:34:44;;;;;;;50.00;12.50;;;;;;;0.48;100.00;147567.78;5114179;27;20019;-66
2022/01/10 04:37:09;;;;;;;35.67;10.90;;;;;;;0.50;100.00;147572.94;5121817;27;20030;-66
2022/01/10 04:39:35;;;;;;;45.80;11.20;;;;;;;0.45;100.00;147560.09;5114513;27;20675;-67
2022/01/10 04:42:00;;;;;;;44.43;10.97;;;;;;;0.46;100.00;147561.38;5121059;27;20099;-66
2022/01/10 04:44:26;;;;;;;48.43;10.87;;;;;;;0.54;100.00;147583.19;5116056;27;20409;-66
2022/01/10 04:46:51;;;;;;;45.07;12.17;;;;;;;0.51;100.00;147575.50;5119138;27;20443;-67
2022/01/10 04:49:21;;;;;;;51.83;12.40;;;;;;;0.52;100.00;147578.06;5115203;27;20038;-66
2022/01/10 04:51:50;;;;;;;51.27;12.03;;;;;;;0.75;100.00;147634.56;5117958;27;20035;-66
2022/01/10 04:54:17;;;;;;;66.60;13.07;;;;;;;0.55;100.00;147584.47;5117457;27;20015;-66
2022/01/10 04:56:43;;;;;;;43.53;12.67;;;;;;;0.51;100.00;147575.50;5111036;27;20031;-67
2022/01/10 04:59:09;;;;;;;70.20;12.30;;;;;;;0.40;100.00;147547.25;5116409;27;20023;-66
2022/01/10 05:01:34;;;;;;;54.87;12.47;;;;;;;0.45;100.00;147560.09;5119214;27;20485;-66
2022/01/10 05:04:00;;;;;;;50.83;12.77;;;;;;;0.47;100.00;147565.22;5116314;27;20081;-66
2022/01/10 05:06:26;;;;;;;48.27;11.93;;;;;;;0.38;100.00;147540.84;5112972;27;20027;-67
2022/01/10 05:08:51;;;;;;;39.13;11.77;;;;;;;0.44;100.00;147557.53;5118941;27;20087;-66
2022/01/10 05:11:17;;;;;;;60.23;12.83;;;;;;;0.36;100.00;147536.97;5119462;27;20031;-66
2022/01/10 05:13:43;;;;;;;55.83;11.13;;;;;;;0.49;100.00;147570.38;5121189;27;20031;-66
2022/01/10 05:16:08;;;;;;;49.43;12.73;;;;;;;0.38;100.00;147542.13;5121580;27;20026;-66
2022/01/10 05:18:34;;;;;;;42.67;12.10;;;;;;;0.36;100.00;147536.97;5122649;27;20027;-67
2022/01/10 05:20:59;;;;;;;51.70;11.90;;;;;;;0.39;100.00;147543.41;5123092;27;20548;-66
2022/01/10 05:23:25;;;;;;;48.83;12.33;;;;;;;0.42;100.00;147552.38;5120443;27;20034;-67
2022/01/10 05:25:50;;;;;;;53.27;12.93;;;;;;;0.39;100.00;147543.41;5121744;27;20031;-67
2022/01/10 05:28:17;;;;;;;56.23;13.33;;;;;;;0.42;100.00;147552.38;5118487;27;20038;-66
2022/01/10 05:30:43;;;;;;;47.27;12.73;;;;;;;0.49;100.00;147570.38;5119165;27;20062;-71
2022/01/10 05:33:09;;;;;;;49.73;12.73;;;;;;;0.52;100.00;147578.06;5120859;27;20488;-66
2022/01/10 05:35:36;;;;;;;62.70;13.10;;;;;;;0.50;100.00;147571.66;5122939;27;20022;-66
2022/01/10 05:38:01;;;;;;;48.13;13.43;;;;;;;0.50;100.00;147571.66;5121170;27;20031;-66
2022/01/10 05:40:27;;;;;;;62.60;13.67;;;;;;;0.55;100.00;147585.75;5123409;27;20047;-66
2022/01/10 05:42:53;;;;;;;51.53;12.60;;;;;;;0.47;100.00;147565.22;5121920;27;20069;-66
2022/01/10 05:45:18;;;;;;;53.37;12.80;;;;;;;0.51;100.00;147575.50;5115685;27;20533;-66
2022/01/10 05:47:46;;;;;;;44.17;14.17;;;;;;;0.36;100.00;147536.97;5113946;27;20633;-67
2022/01/10 05:50:14;;;;;;;55.40;14.37;;;;;;;0.47;100.00;147563.94;5113213;27;20139;-67
2022/01/10 05:52:39;;;;;;;59.00;14.00;;;;;;;0.37;100.00;147539.56;5121343;27;20027;-66
2022/01/10 05:55:05;;;;;;;58.17;13.40;;;;;;;0.34;100.00;147531.84;5120210;27;20027;-66
2022/01/10 05:57:31;;;;;;;50.67;13.57;;;;;;;0.47;100.00;147565.22;5122032;27;20433;-66
2022/01/10 05:59:57;;;;;;;47.70;12.87;;;;;;;0.49;100.00;147570.38;5119815;27;20041;-66
2022/01/10 06:02:23;;;;;;;75.33;16.60;;;;;;;0.44;100.00;147556.25;5119158;27;20030;-66
2022/01/10 06:04:49;;;;;;;55.37;14.33;;;;;;;0.39;100.00;147544.69;5118917;27;20054;-66
2022/01/10 06:07:14;;;;;;;50.50;14.30;;;;;;;0.51;100.00;147574.22;5118879;27;20023;-66
2022/01/10 06:09:40;;;;;;;59.33;14.67;;;;;;;0.42;100.00;147551.09;5120976;27;20034;-66
2022/01/10 06:12:06;;;;;;;69.27;15.87;;;;;;;0.33;100.00;147529.28;5121257;27;20059;-66
2022/01/10 06:14:31;;;;;;;57.60;15.77;;;;;;;0.32;100.00;147525.44;5119373;27;20019;-67
2022/01/10 06:16:57;;;;;;;54.93;14.50;;;;;;;0.37;100.00;147539.56;5121623;27;20027;-66
2022/01/10 06:19:22;;;;;;;57.73;15.23;;;;;;;0.44;100.00;147557.53;5120471;27;20075;-66
2022/01/10 06:21:48;;;;;;;63.83;15.27;;;;;;;0.44;100.00;147557.53;5121659;27;20531;-67
2022/01/10 06:24:13;;;;;;;53.17;15.70;;;;;;;0.39;100.00;147544.69;5120013;27;20356;-67
2022/01/10 06:26:39;;;;;;;58.80;15.53;;;;;;;0.43;100.00;147554.97;5119966;27;20023;-66
2022/01/10 06:29:04;;;;;;;54.93;15.87;;;;;;;0.40;100.00;147547.25;5115733;27;20040;-66
2022/01/10 06:31:30;;;;;;;65.27;17.00;;;;;;;0.41;100.00;147549.81;5120366;27;20034;-66
2022/01/10 06:33:55;;;;;;;64.00;16.47;;;;;;;0.34;100.00;147531.84;5119256;27;20030;-67
2022/01/10 06:36:21;;;;;;;55.37;15.77;;;;;;;0.26;100.00;147511.34;5121396;27;20066;-66
2022/01/10 06:38:46;;;;;;;57.27;14.63;;;;;;;0.24;100.00;147506.16;5121838;27;20482;-66
2022/01/10 06:41:11;;;;;;;58.10;17.70;;;;;;;0.26;100.00;147511.34;5121623;27;20151;-67
2022/01/10 06:43:39;;;;;;;64.00;16.50;;;;;;;0.30;100.00;147521.59;5114287;27;20019;-67
2022/01/10 06:46:05;;;;;;;57.50;15.67;;;;;;;0.32;100.00;147526.72;5119145;27;20038;-67
2022/01/10 06:48:31;;;;;;;72.53;15.90;;;;;;;0.25;100.00;147508.78;5117868;27;20030;-67
2022/01/10 06:50:56;;;;;;;89.37;19.70;;;;;;;0.18;100.00;147490.78;5118518;27;20026;-67
2022/01/10 06:53:22;;;;;;;91.60;19.07;;;;;;;0.21;100.00;147498.47;5121419;27;20110;-66
2022/01/10 06:55:48;;;;;;;66.93;16.70;;;;;;;0.25;100.00;147510.06;5121394;27;20034;-66
2022/01/10 06:58:14;;;;;;;75.43;17.77;;;;;;;0.29;100.00;147519.03;5120004;27;20609;-66
2022/01/10 07:00:41;;;;;;;69.90;16.70;;;;;;;0.22;100.00;147501.03;5120262;27;20034;-66
2022/01/10 07:03:07;;;;;;;71.83;16.50;;;;;;;0.26;100.00;147512.63;5116585;27;20547;-66
2022/01/10 07:05:32;;;;;;;64.37;16.10;;;;;;;0.29;100.00;147519.03;5117575;27;20717;-67
2022/01/10 07:07:58;;;;;;;55.37;15.17;;;;;;;0.25;100.00;147508.78;5118965;28;20035;-66
2022/01/10 07:10:23;;;;;;;61.03;16.10;;;;;;;0.26;100.00;147511.34;5120958;28;20038;-66
2022/01/10 07:12:49;;;;;;;58.07;14.93;;;;;;;0.22;100.00;147501.03;5116728;27;20096;-67
2022/01/10 07:15:14;;;;;;;70.10;17.33;;;;;;;0.29;100.00;147520.31;5114579;28;20038;-67
2022/01/10 07:17:40;;;;;;;48.50;14.40;;;;;;;0.24;100.00;147506.16;5120691;28;20034;-67
2022/01/10 07:20:06;;;;;;;57.67;14.77;;;;;;;0.19;100.00;147493.34;5121910;27;20031;-67
2022/01/10 07:22:32;;;;;;;55.67;15.90;;;;;;;0.11;100.00;147474.09;5125779;27;20171;-67
2022/01/10 07:24:57;;;;;;;73.20;15.77;;;;;;;0.05;100.00;147458.72;5118884;27;20042;-67
2022/01/10 07:27:22;;;;;;;62.00;15.37;;;;;;;0.09;100.00;147467.69;5120535;27;20495;-67
2022/01/10 07:29:50;;;;;;;66.30;15.17;;;;;;;0.01;100.00;147447.19;5121680;27;20027;-67
2022/01/10 07:32:17;;;;;;;57.27;16.73;;;;;;;0.12;100.00;147476.69;5117925;27;20030;-67
2022/01/10 07:34:43;;;;;;;70.53;17.00;;;;;;;0.02;100.00;147449.75;5118394;27;20030;-67
2022/01/10 07:37:09;;;;;;;61.77;16.47;;;;;;;0.12;100.00;147476.69;5121082;27;20023;-67
2022/01/10 07:39:34;;;;;;;60.50;15.13;;;;;;;-0.01;100.00;147444.56;5123461;27;20467;-66
2022/01/10 07:42:00;;;;;;;61.87;16.33;;;;;;;-0.07;100.00;147427.94;5121970;27;20041;-67
2022/01/10 07:44:25;;;;;;;62.20;16.60;;;;;;;0.07;100.00;147462.56;5117754;27;20027;-67
2022/01/10 07:46:51;;;;;;;65.67;18.10;;;;;;;-0.01;100.00;147443.28;5118547;27;20062;-67
2022/01/10 07:49:16;;;;;;;75.40;15.90;;;;;;;0.04;100.00;147456.16;5115854;27;20034;-66
2022/01/10 07:51:42;;;;;;;65.33;16.73;;;;;;;0.17;100.00;147488.22;5121261;27;20030;-66
2022/01/10 07:54:07;;;;;;;56.53;15.50;;;;;;;0.17;100.00;147488.22;5123285;27;20521;-66
2022/01/10 07:56:33;;;;;;;67.70;17.97;;;;;;;0.17;100.00;147488.22;5121530;27;20027;-66
2022/01/10 07:58:59;;;;;;;73.30;18.50;;;;;;;0.25;100.00;147508.78;5125159;27;20043;-66
2022/01/10 08:01:24;;;;;;;109.10;19.20;;;;;;;0.24;100.00;147507.50;5121183;27;20485;-67
2022/01/10 08:03:51;;;;;;;78.63;17.40;;;;;;;0.33;100.00;147529.28;5123254;27;20110;-67
2022/01/10 08:06:20;;;;;;;69.33;16.47;;;;;;;0.34;100.00;147531.84;5122832;27;20034;-67
2022/01/10 08:08:46;;;;;;;64.27;17.73;;;;;;;0.39;100.00;147544.69;5118616;27;20417;-66
2022/01/10 08:11:11;;;;;;;61.33;16.40;;;;;;;0.40;100.00;147545.97;5123340;27;20031;-67
2022/01/10 08:13:37;;;;;;;77.23;16.77;;;;;;;0.43;100.00;147554.97;5122193;27;20034;-66
2022/01/10 08:16:04;;;;;;;67.20;16.00;;;;;;;0.41;100.00;147549.81;5123315;27;20038;-66
2022/01/10 08:18:30;;;;;;;60.10;17.37;;;;;;;0.36;100.00;147536.97;5117098;27;20028;-67
2022/01/10 08:20:56;;;;;;;71.37;16.93;;;;;;;0.32;100.00;147526.72;5123300;27;20045;-67
2022/01/10 08:23:22;;;;;;;57.30;15.80;;;;;;;0.29;100.00;147520.31;5122314;27;20394;-66
2022/01/10 08:25:48;;;;;;;66.73;17.17;;;;;;;0.32;100.00;147526.72;5122322;27;20029;-67
2022/01/10 08:28:14;;;;;;;60.57;15.30;;;;;;;0.34;100.00;147531.84;5123037;27;20107;-66
2022/01/10 08:30:39;;;;;;;66.53;17.23;;;;;;;0.38;100.00;147542.13;5125326;27;20127;-66
2022/01/10 08:33:05;;;;;;;60.37;16.43;;;;;;;0.42;100.00;147552.38;5120732;27;20030;-66
2022/01/10 08:35:30;;;;;;;55.30;16.73;;;;;;;0.44;100.00;147557.53;5123835;27;20031;-67
2022/01/10 08:37:56;;;;;;;63.80;18.00;;;;;;;0.53;100.00;147580.63;5124120;27;20491;-66
2022/01/10 08:40:22;;;;;;;59.83;16.67;;;;;;;0.86;100.00;147664.09;5122345;27;20027;-67
2022/01/10 08:42:47;;;;;;;54.63;16.53;;;;;;;1.19;100.00;147746.25;5123346;27;20021;-66
2022/01/10 08:45:13;;;;;;;45.23;14.03;;;;;;;1.42;100.00;147804.06;5123873;27;20046;-66
2022/01/10 08:47:39;;;;;;;43.53;15.40;;;;;;;1.46;100.00;147814.38;5122591;27;20039;-66
2022/01/10 08:50:06;;;;;;;41.80;14.70;;;;;;;1.82;100.00;147905.59;5119366;27;20122;-67
2022/01/10 08:52:32;;;;;;;37.60;13.03;;;;;;;1.68;100.00;147869.56;5123823;27;20046;-67
2022/01/10 08:54:57;;;;;;;33.37;12.10;;;;;;;1.69;100.00;147873.44;5121831;27;20673;-66
2022/01/10 08:57:24;;;;;;;36.47;12.40;;;;;;;1.67;100.00;147868.28;5120241;27;20081;-66
2022/01/10 08:59:49;;;;;;;31.87;11.17;;;;;;;1.72;100.00;147881.19;5116190;27;20395;-67
2022/01/10 09:02:15;;;;;;;33.37;11.50;;;;;;;2.03;100.00;147959.56;5120815;27;20038;-67
2022/01/10 09:04:41;;;;;;;30.07;10.63;;;;;;;1.98;100.00;147945.44;5120335;27;20046;-67
2022/01/10 09:07:08;;;;;;;26.13;9.60;;;;;;;1.53;100.00;147832.31;5122378;27;20035;-67
2022/01/10 09:09:35;;;;;;;27.53;9.90;;;;;;;1.39;100.00;147796.38;5114702;27;20023;-67
2022/01/10 09:12:00;;;;;;;29.60;10.13;;;;;;;1.37;100.00;147792.53;5116681;27;20395;-67
2022/01/10 09:14:26;;;;;;;36.57;11.93;;;;;;;1.32;100.00;147778.38;5118046;27;20038;-67
2022/01/10 09:16:51;;;;;;;31.70;10.27;;;;;;;1.35;100.00;147787.38;5124371;27;20033;-67
2022/01/10 09:19:17;;;;;;;37.03;12.20;;;;;;;1.32;100.00;147778.38;5123377;27;20102;-67
2022/01/10 09:21:42;;;;;;;38.07;12.83;;;;;;;1.30;100.00;147773.22;5113368;27;20477;-67
2022/01/10 09:24:08;;;;;;;42.10;11.93;;;;;;;1.31;100.00;147775.78;5103237;27;20388;-67
2022/01/10 09:26:34;;;;;;;41.60;12.93;;;;;;;1.38;100.00;147793.81;5113751;27;20030;-67
2022/01/10 09:28:59;;;;;;;43.03;14.43;;;;;;;1.45;100.00;147811.75;5107202;27;20061;-67
2022/01/10 09:31:26;;;;;;;38.40;14.63;;;;;;;1.45;100.00;147811.75;5119690;27;20039;-67
2022/01/10 09:33:54;;;;;;;42.80;13.60;;;;;;;1.47;100.00;147816.94;5115770;27;20123;-67
2022/01/10 09:36:23;;;;;;;38.87;14.87;;;;;;;1.43;100.00;147806.63;5114213;27;20031;-67
2022/01/10 09:38:49;;;;;;;43.23;14.13;;;;;;;1.53;100.00;147831.03;5113969;27;20114;-67
2022/01/10 09:41:15;;;;;;;46.77;16.03;;;;;;;1.53;100.00;147832.31;5119838;27;20182;-67
2022/01/10 09:43:49;;;;;;;40.83;16.10;;;;;;;1.48;100.00;147819.50;5118675;27;20118;-67
2022/01/10 09:46:14;;;;;;;48.10;17.43;;;;;;;1.53;100.00;147832.31;5119917;27;20019;-67
2022/01/10 09:48:40;;;;;;;50.73;16.30;;;;;;;1.59;100.00;147846.50;5117075;27;20394;-66
2022/01/10 09:51:05;;;;;;;47.07;17.07;;;;;;;1.63;100.00;147858.03;5113765;27;20396;-67
2022/01/10 09:53:31;;;;;;;49.93;16.40;;;;;;;1.70;100.00;147876.03;5112072;27;20040;-67
2022/01/10 09:55:56;;;;;;;47.00;16.03;;;;;;;1.68;100.00;147869.56;5112322;27;20770;-67
2022/01/10 09:58:22;;;;;;;56.27;16.87;;;;;;;1.73;100.00;147883.75;5110601;27;20082;-67
2022/01/10 10:00:48;;;;;;;48.00;17.20;;;;;;;1.74;100.00;147886.31;5102626;27;20037;-67
2022/01/10 10:03:13;;;;;;;48.17;17.00;;;;;;;1.80;100.00;147899.13;5112633;27;20139;-67
2022/01/10 10:05:41;;;;;;;49.80;16.53;;;;;;;1.88;100.00;147919.72;5118795;27;20091;-67
2022/01/10 10:08:07;;;;;;;49.17;17.43;;;;;;;1.93;100.00;147932.56;5114886;27;20102;-67
2022/01/10 10:10:34;;;;;;;54.23;16.87;;;;;;;1.95;100.00;147939.00;5112642;27;20031;-67
2022/01/10 10:13:00;;;;;;;48.67;16.03;;;;;;;1.97;100.00;147942.88;5113911;27;20023;-67
2022/01/10 10:15:30;;;;;;;47.27;17.00;;;;;;;1.98;100.00;147946.72;5116700;27;20532;-67
2022/01/10 10:17:56;;;;;;;40.90;16.43;;;;;;;2.08;100.00;147971.16;5119086;27;20766;-67
2022/01/10 10:20:23;;;;;;;48.53;17.43;;;;;;;2.09;100.00;147973.72;5115846;27;20036;-67
2022/01/10 10:22:51;;;;;;;45.57;16.77;;;;;;;2.20;100.00;148002.00;5115142;27;20110;-67
2022/01/10 10:25:17;;;;;;;44.33;15.93;;;;;;;2.25;100.00;148014.84;5110517;27;20046;-67
2022/01/10 10:27:46;;;;;;;43.37;17.80;;;;;;;2.26;100.00;148017.41;5115527;27;20059;-67
2022/01/10 10:30:19;;;;;;;41.77;15.87;;;;;;;2.22;100.00;148007.13;5115587;27;20095;-67
2022/01/10 10:32:45;;;;;;;49.90;15.50;;;;;;;2.26;100.00;148016.13;5112735;27;20038;-67
2022/01/10 10:35:10;;;;;;;36.87;15.57;;;;;;;2.36;100.00;148041.84;5111107;27;20483;-67
2022/01/10 10:37:38;;;;;;;37.43;14.83;;;;;;;2.31;100.00;148030.28;5118511;27;20038;-67
2022/01/10 10:40:09;;;;;;;37.30;14.00;;;;;;;2.33;100.00;148035.44;5116152;27;20035;-67
2022/01/10 10:42:37;;;;;;;37.80;15.70;;;;;;;2.46;100.00;148066.28;5120536;27;20648;-67
2022/01/10 10:45:04;;;;;;;48.10;16.47;;;;;;;2.55;100.00;148090.72;5118718;27;20034;-67
2022/01/10 10:47:30;;;;;;;41.57;17.80;;;;;;;2.52;100.00;148081.69;5120186;27;20487;-67
2022/01/10 10:49:58;;;;;;;41.43;17.27;;;;;;;2.52;100.00;148081.69;5112998;27;20035;-67
2022/01/10 10:52:30;;;;;;;41.03;15.93;;;;;;;2.60;100.00;148103.56;5119273;27;20031;-67
2022/01/10 10:54:56;;;;;;;;;;;;;;;2.68;100.00;148121.59;5111738;27;20459;-67
2022/01/10 10:57:21;;;;;;;42.67;16.70;;;;;;;2.78;100.00;148148.56;5114099;27;19919;-67
2022/01/10 10:59:48;;;;;;;40.27;16.13;;;;;;;2.77;100.00;148144.72;5116764;27;20415;-67
2022/01/10 11:02:13;;;;;;;40.63;16.30;;;;;;;2.79;100.00;148149.91;5118455;27;20046;-67
2022/01/10 11:04:41;;;;;;;43.23;16.23;;;;;;;2.88;100.00;148174.31;5113132;28;20119;-67
2022/01/10 11:07:09;;;;;;;41.80;16.80;;;;;;;2.94;100.00;148189.75;5112056;27;20752;-67
2022/01/10 11:09:35;;;;;;;42.27;17.43;;;;;;;2.96;100.00;148192.34;5113712;27;20043;-67
2022/01/10 11:12:00;;;;;;;49.27;17.50;;;;;;;3.06;100.00;148218.06;5111189;27;20386;-67
2022/01/10 11:14:26;;;;;;;43.20;16.27;;;;;;;3.03;100.00;148211.66;5116632;27;20034;-67
2022/01/10 11:16:54;;;;;;;38.83;15.37;;;;;;;2.99;100.00;148200.03;5119158;28;20027;-67
2022/01/10 11:19:28;;;;;;;47.80;15.70;;;;;;;3.09;100.00;148227.06;5117694;28;20034;-67